CST,Max TemperatureF,Mean TemperatureF,Min TemperatureF,Max Dew PointF,MeanDew PointF,Min DewpointF,Max Humidity, Mean Humidity, Min Humidity, Max Sea Level PressureIn, Mean Sea Level PressureIn, Min Sea Level PressureIn, Max VisibilityMiles, Mean VisibilityMiles, Min VisibilityMiles, Max Wind SpeedMPH, Mean Wind SpeedMPH, Max Gust SpeedMPH,PrecipitationIn, CloudCover, Events, WindDirDegrees
2012-2-1,63,43,23,30,25,22,92,58,23,30.21,30.16,30.12,10,10,10,12,2,14,0.00,1,,222
2012-2-2,61,43,25,31,25,22,84,54,23,30.27,30.18,30.08,10,10,10,14,5,18,0.00,1,,74
2012-2-3,50,46,41,43,40,29,100,70,39,30.09,30.05,29.99,10,6,2,23,12,29,1.53,8,Rain-Thunderstorm,61
2012-2-4,41,37,33,39,32,28,100,91,82,30.39,30.23,30.01,10,8,2,17,9,23,0.01,8,Rain,3
2012-2-5,47,36,24,29,26,22,92,67,42,30.47,30.41,30.37,10,10,10,13,4,21,0.00,2,,321
2012-2-6,52,37,21,31,25,20,96,64,32,30.36,30.27,30.17,10,10,7,12,3,15,0.00,1,,233
2012-2-7,47,38,29,34,29,27,92,79,65,30.53,30.39,30.22,10,5,2,15,7,18,0.02,8,Snow,359
2012-2-8,33,30,27,28,25,23,92,82,72,30.56,30.48,30.36,10,8,5,9,2,15,0.00,8,,10
2012-2-9,40,36,31,34,30,28,92,78,64,30.38,30.23,30.09,9,7,5,16,6,21,0.00,7,,218
2012-2-10,37,24,11,32,11,0,92,63,33,30.63,30.35,30.08,10,9,4,20,10,29,T,1,,349
2012-2-11,27,17,7,4,0,-3,73,51,29,30.84,30.74,30.65,10,10,10,16,5,24,0.00,0,,3
2012-2-12,34,20,6,22,8,3,88,58,28,30.71,30.41,30.07,10,9,2,23,8,32,T,4,Snow,185
2012-2-13,34,30,26,34,29,21,100,93,85,30.08,29.87,29.71,9,4,1,15,7,22,0.19,8,Snow,198
2012-2-14,50,33,16,34,25,16,100,77,54,29.94,29.88,29.84,10,6,0,14,4,17,0.00,2,Fog,219
2012-2-15,43,36,28,41,36,28,100,90,79,30.17,29.92,29.84,10,4,0,12,3,18,0.02,7,Fog-Rain,7
2012-2-16,51,37,23,31,27,23,92,64,36,30.35,30.26,30.19,10,10,10,8,1,12,0.00,0,,208
2012-2-17,59,42,24,37,30,23,100,72,43,30.22,30.14,30.07,10,10,7,21,6,24,0.00,3,,246
2012-2-18,45,35,24,26,22,19,81,61,40,30.30,30.21,30.14,10,10,9,17,7,21,0.00,2,,45
2012-2-19,53,36,18,28,24,17,96,66,35,30.17,30.07,29.96,10,9,5,16,5,21,0.00,0,,148
2012-2-20,50,45,39,43,38,28,86,73,60,29.96,29.73,29.58,10,10,3,30,14,39,0.07,7,Rain-Thunderstorm,195
2012-2-21,57,44,31,34,27,20,82,54,26,29.97,29.86,29.74,10,10,10,20,11,25,0.00,1,,246
2012-2-22,66,51,35,41,32,26,75,52,28,29.72,29.55,29.37,10,10,10,20,6,25,T,2,,249
2012-2-23,55,46,36,40,33,24,77,60,42,29.90,29.53,29.22,10,10,10,22,11,44,T,3,,321
2012-2-24,50,38,25,28,22,16,85,56,26,30.30,30.15,29.94,10,10,10,17,9,25,T,1,,299
2012-2-25,53,36,18,26,23,18,100,68,35,30.36,30.17,29.78,10,10,10,25,10,35,0.00,1,,150
2012-2-26,62,47,31,26,19,10,56,35,14,30.25,29.98,29.75,10,10,10,32,11,44,0.00,0,,244
2012-2-27,49,36,23,24,18,14,68,47,26,30.52,30.40,30.26,10,10,10,15,9,20,0.00,2,,71
2012-2-28,62,52,41,56,44,20,86,63,39,30.23,29.78,29.42,10,9,5,32,14,41,0.03,7,Rain-Thunderstorm,158
2012-2-29,58,43,27,32,25,24,72,50,28,29.90,29.81,29.63,10,10,10,26,11,37,0.00,0,,268